Latest Coastal Weather Observations for Port Fairy

IDV60701

Issued at 7:32 am EST Thursday 27 April 2017 (issued every 10 minutes, with the page automatically refreshed every 10 minutes)

About coastal observations | Map of coastal stations | Coastal observations for VIC | Marine services | Other Formats
Station Details ID: 090175 Name: PORT FAIRY AWS Lat: -38.39 Lon: 142.23 Height: 10.0 m
Data from the previous 72 hours. | See also: Recent months at Port Fairy
Date/Time
EST
Temp
°C
Wind Pressure Rain since
9am
mm
Weather Cloud Vis
km
Sea
Height
m
Swell
Dir  Spd
kts
Gust
kts
hPa Trend Height
m
Period
s
Dir
27/07:30am 12.6 SW 11 16 1023.9 - 3.8 - - - - - - -
27/07:00am 12.4 SW 9 13 1023.6 - 3.8 - - - - - - -
27/06:30am 12.2 SW 10 17 1023.6 - 3.8 - - - - - - -
27/06:00am 12.7 SSW 12 17 1023.3 - 3.8 - - - - - - -
27/05:30am 12.1 SSW 10 14 1023.2 - 3.8 - - - - - - -
27/05:00am 11.1 S 9 12 1022.9 - 3.8 - - - - - - -
27/04:30am 11.5 S 12 21 1022.6 - 3.8 - - - - - - -
27/04:00am 12.3 SSW 11 15 1022.4 - 3.6 - - - - - - -
27/03:30am 11.8 S 9 15 1022.5 - 3.6 - - - - - - -
27/03:00am 12.4 SSW 12 17 1022.6 - 3.6 - - - - - - -
27/02:30am 12.4 SSW 13 18 1022.7 - 3.6 - - - - - - -
27/02:00am 12.0 S 12 16 1022.6 - 3.6 - - - - - - -
27/01:30am 12.0 S 12 18 1022.4 - 3.6 - - - - - - -
27/01:00am 12.1 SSW 12 17 1022.3 - 3.6 - - - - - - -
27/12:30am 12.2 SSW 13 18 1022.2 - 3.6 - - - - - - -
27/12:00am 11.9 SSW 11 16 1022.3 - 3.6 - - - - - - -
 
Date/Time
EST
Temp
°C
Wind Pressure Rain since
9am
mm
Weather Cloud Vis
km
Sea
Height
m
Swell
Dir  Spd
kts
Gust
kts
hPa Trend Height
m
Period
s
Dir
26/11:30pm 12.1 SSW 15 20 1022.2 - 3.6 - - - - - - -
26/11:00pm 12.2 SSW 14 18 1022.1 - 3.6 - - - - - - -
26/10:30pm 11.6 S 14 21 1022.0 - 3.6 - - - - - - -
26/10:00pm 11.9 SSW 14 21 1022.0 - 3.6 - - - - - - -
26/09:30pm 11.4 S 15 23 1021.7 - 3.6 - - - - - - -
26/09:00pm 12.0 SSW 18 25 1021.2 - 3.6 - - - - - - -
26/08:30pm 12.1 SSW 17 24 1020.9 - 3.6 - - - - - - -
26/08:00pm 12.0 S 16 23 1020.9 - 3.6 - - - - - - -
26/07:30pm 12.1 SSW 18 26 1020.7 - 3.6 - - - - - - -
26/07:08pm 12.2 SSW 18 29 1020.3 - 3.6 - - - - - - -
26/07:00pm 11.9 SSW 18 25 1020.2 - 3.6 - - - - - - -
26/06:30pm 11.4 SSW 18 25 1019.9 - 3.6 - - - - - - -
26/06:00pm 10.5 SW 21 29 1019.9 - 3.6 Rain - - - - - -
26/05:51pm 12.2 SW 17 28 1019.7 - 2.2 - - - - - - -
26/05:30pm 12.3 SSW 20 27 1019.2 - 2.2 - - - - - - -
26/05:00pm 12.2 SSW 17 24 1018.9 - 2.2 - - - - - - -
26/04:42pm 11.5 SSW 19 30 1018.8 - 2.2 - - - - - - -
26/04:30pm 12.3 SSW 20 27 1018.6 - 2.2 - - - - - - -
26/04:00pm 12.5 SW 19 28 1018.3 - 2.2 - - - - - - -
26/03:30pm 12.1 SSW 17 26 1018.0 - 2.2 - - - - - - -
26/03:26pm 12.1 SW 15 25 1018.0 - 2.2 - - - - - - -
26/03:00pm 11.8 SSW 17 22 1018.0 - 2.2 Recent precip. - - - - - -
26/02:30pm 10.8 SSW 18 29 1017.8 - 2.2 - - - - - - -
26/02:27pm 10.5 SSW 15 27 1017.7 - 2.2 - - - - - - -
26/02:00pm 11.3 SW 19 28 1017.5 - 1.8 - - - - - - -
26/01:44pm 11.8 SW 17 31 1017.4 - 1.8 - - - - - - -
26/01:30pm 10.7 WSW 15 20 1017.4 - 1.8 - - - - - - -
26/01:00pm 11.2 SSW 15 24 1017.7 - 0.6 - - - - - - -
26/12:30pm 12.0 SSW 18 28 1017.4 - 0.6 - - - - - - -
26/12:20pm 11.8 SSW 17 28 1017.4 - 0.6 - - - - - - -
26/12:00pm 12.3 S 20 29 1017.2 - 0.6 Recent precip. - - - - - -
26/11:30am 10.9 SSW 18 29 1017.1 - 0.4 - - - - - - -
26/11:00am 12.2 SSW 21 32 1016.6 - 0.4 - - - - - - -
26/10:30am 11.0 SSW 18 29 1016.1 - 0.4 - - - - - - -
26/10:00am 11.1 S 21 34 1015.8 - 0.0 - - - - - - -
26/09:30am 11.8 S 20 33 1015.2 - 0.0 - - - - - - -
26/09:00am 11.8 S 19 29 1014.6 - 11.4 - - - - - - -
26/08:56am 11.9 S 19 29 1014.4 - 11.4 - - - - - - -
26/08:30am 11.8 S 19 27 1014.0 - 11.4 - - - - - - -
26/08:00am 11.2 S 21 33 1013.2 - 11.4 - - - - - - -
26/07:30am 10.4 S 24 34 1012.5 - 11.4 - - - - - - -
26/07:20am 12.2 S 21 34 1012.1 - 11.0 - - - - - - -
26/07:00am 11.7 S 19 27 1011.6 - 11.0 - - - - - - -
26/06:43am 12.3 S 20 32 1011.4 - 10.8 - - - - - - -
26/06:30am 12.1 S 21 28 1011.2 - 10.8 - - - - - - -
26/06:00am 12.5 SSW 18 28 1010.4 - 10.8 - - - - - - -
26/05:55am 12.5 SSW 18 28 1010.3 - 10.8 - - - - - - -
26/05:30am 12.3 S 19 28 1009.7 - 10.8 - - - - - - -
26/05:00am 12.4 S 20 28 1009.1 - 10.8 - - - - - - -
26/04:30am 12.2 SSW 21 32 1008.2 - 10.8 - - - - - - -
26/04:17am 12.5 SSW 22 32 1008.0 - 10.8 - - - - - - -
26/04:00am 12.1 S 19 29 1007.6 - 10.8 - - - - - - -
26/03:33am 12.2 SSW 20 31 1007.3 - 10.6 - - - - - - -
26/03:30am 12.7 SSW 20 27 1007.2 - 10.6 - - - - - - -
26/03:00am 12.5 SSW 19 26 1006.7 - 10.6 Recent precip. - - - - - -
26/02:30am 12.1 S 17 27 1006.5 - 10.6 - - - - - - -
26/02:11am 12.4 SSW 17 27 1006.2 - 10.4 - - - - - - -
26/02:00am 12.2 S 16 21 1006.0 - 10.4 - - - - - - -
26/01:30am 11.9 SSW 16 22 1006.1 - 10.4 - - - - - - -
26/01:00am 11.5 SW 15 21 1006.1 - 10.4 - - - - - - -
26/12:30am 11.0 SSW 17 26 1005.8 - 10.4 - - - - - - -
26/12:11am 11.3 SSW 17 28 1005.5 - 10.2 - - - - - - -
26/12:00am 11.2 SW 21 27 1005.9 - 9.8 Rain - - - - - -
 
Date/Time
EST
Temp
°C
Wind Pressure Rain since
9am
mm
Weather Cloud Vis
km
Sea
Height
m
Swell
Dir  Spd
kts
Gust
kts
hPa Trend Height
m
Period
s
Dir
25/11:30pm 11.7 SW 27 36 1005.5 - 9.0 - - - - - - -
25/11:00pm 12.3 SW 24 33 1005.0 - 8.2 - - - - - - -
25/10:39pm 12.3 W 15 32 1005.0 - 6.6 - - - - - - -
25/10:30pm 12.0 WNW 11 24 1005.0 - 5.6 - - - - - - -
25/10:00pm 12.7 NW 7 11 1004.6 - 5.4 - - - - - - -
25/09:30pm 12.8 NW 8 13 1004.8 - 5.4 - - - - - - -
25/09:00pm 12.9 NW 8 13 1005.1 - 5.4 Recent precip. - - - - - -
25/08:30pm 12.9 NW 7 12 1005.3 - 5.4 - - - - - - -
25/08:00pm 12.9 NW 8 13 1005.6 - 5.2 - - - - - - -
25/07:30pm 12.4 NNW 4 6 1005.6 - 5.2 - - - - - - -
25/07:00pm 12.6 NNW 5 7 1005.8 - 5.2 - - - - - - -
25/06:30pm 13.0 NW 5 10 1006.0 - 5.2 - - - - - - -
25/06:00pm 13.4 W 11 18 1005.8 - 5.2 Recent precip. - - - - - -
25/05:30pm 13.5 W 13 19 1005.8 - 5.2 - - - - - - -
25/05:00pm 14.3 WNW 12 20 1006.1 - 2.6 - - - - - - -
25/04:30pm 15.3 WNW 4 7 1005.7 - 0.6 - - - - - - -
25/04:00pm 16.0 WSW 8 11 1005.9 - 0.0 - - - - - - -
25/03:30pm 16.7 WSW 5 7 1005.9 - 0.0 - - - - - - -
25/03:00pm 17.4 SW 5 6 1006.0 - 0.0 - - - - - - -
25/02:30pm 17.5 SW 5 7 1006.5 - 0.0 - - - - - - -
25/02:00pm 17.6 WSW 6 9 1007.1 - 0.0 - - - - - - -
25/01:30pm 17.5 WSW 9 11 1007.7 - 0.0 - - - - - - -
25/01:00pm 17.6 WSW 8 11 1008.1 - 0.0 - - - - - - -
25/12:30pm 17.1 WSW 9 13 1008.6 - 0.0 - - - - - - -
25/12:00pm 16.7 WSW 9 13 1008.9 - 0.0 - - - - - - -
25/11:30am 16.5 WSW 9 12 1009.4 - 0.0 - - - - - - -
25/11:00am 17.0 WSW 5 7 1009.4 - 0.0 - - - - - - -
25/10:30am 16.8 WSW 7 9 1009.7 - 0.0 - - - - - - -
25/10:00am 16.2 WSW 10 14 1010.0 - 0.0 - - - - - - -
25/09:30am 15.7 WSW 7 9 1010.0 - 0.0 - - - - - - -
25/09:00am 14.7 SW 8 10 1010.2 - 15.6 Recent precip. - - - - - -
25/08:30am 14.2 SW 8 11 1010.0 - 15.6 - - - - - - -
25/08:00am 14.5 W 6 9 1009.6 - 14.0 - - - - - - -
25/07:30am 14.5 W 6 9 1009.4 - 14.0 - - - - - - -
25/07:00am 14.3 W 5 6 1009.2 - 14.0 - - - - - - -
25/06:30am 14.2 W 4 7 1009.1 - 14.0 - - - - - - -
25/06:00am 14.2 SW 5 7 1008.8 - 14.0 Recent precip. - - - - - -
25/05:30am 14.1 SW 8 12 1008.7 - 14.0 - - - - - - -
25/05:00am 14.7 SW 11 14 1008.8 - 13.8 - - - - - - -
25/04:30am 14.9 SW 5 7 1008.5 - 13.8 - - - - - - -
25/04:00am 14.9 SW 4 6 1008.5 - 13.8 - - - - - - -
25/03:30am 14.8 SSW 4 6 1008.5 - 13.8 - - - - - - -
25/03:00am 14.9 S 3 4 1008.8 - 13.8 - - - - - - -
25/02:30am 14.8 S 3 4 1009.2 - 13.8 - - - - - - -
25/02:00am 14.7 CALM 0 0 1009.3 - 13.8 - - - - - - -
25/01:30am 14.9 WSW 2 3 1009.8 - 13.8 - - - - - - -
25/01:00am 14.9 CALM 0 0 1009.9 - 13.8 - - - - - - -
25/12:30am 14.9 CALM 0 0 1010.1 - 13.8 - - - - - - -
25/12:00am 15.0 CALM 0 1 1010.7 - 13.6 Rain - - - - - -
 
Date/Time
EST
Temp
°C
Wind Pressure Rain since
9am
mm
Weather Cloud Vis
km
Sea
Height
m
Swell
Dir  Spd
kts
Gust
kts
hPa Trend Height
m
Period
s
Dir
24/11:30pm 14.9 ESE 3 4 1010.6 - 13.4 - - - - - - -
24/11:00pm 15.0 E 4 6 1011.2 - 13.4 - - - - - - -
24/10:30pm 15.2 E 5 9 1011.6 - 13.4 - - - - - - -
24/10:00pm 15.0 E 7 11 1011.8 - 13.2 - - - - - - -
24/09:30pm 15.1 E 6 9 1012.2 - 13.2 - - - - - - -
24/09:00pm 15.2 ESE 6 9 1012.6 - 13.2 - - - - - - -
24/08:30pm 15.2 ESE 7 9 1012.8 - 13.2 - - - - - - -
24/08:00pm 15.1 ESE 6 8 1013.2 - 13.2 - - - - - - -
24/07:30pm 15.3 E 6 9 1013.4 - 12.8 - - - - - - -
24/07:00pm 15.1 E 7 11 1013.2 - 12.8 - - - - - - -
24/06:30pm 15.0 ESE 7 9 1013.5 - 11.6 - - - - - - -
24/06:00pm 15.2 SE 7 9 1013.6 - 10.6 Rain - - - - - -
24/05:30pm 15.1 SSE 4 6 1014.0 - 9.2 - - - - - - -
24/05:00pm 15.4 SSW 3 7 1014.3 - 7.2 - - - - - - -
24/04:30pm 15.5 SE 2 5 1014.4 - 2.8 - - - - - - -
24/04:00pm 15.7 ESE 2 5 1014.5 - 1.0 - - - - - - -
24/03:30pm 16.0 ESE 2 4 1014.8 - 0.8 - - - - - - -
24/03:00pm 16.2 ESE 3 5 1015.0 - 0.8 Recent precip. - - - - - -
24/02:30pm 16.3 CALM 0 0 1015.4 - 0.6 - - - - - - -
24/02:00pm 16.5 CALM 0 0 1016.0 - 0.2 - - - - - - -
24/01:30pm 16.7 CALM 0 0 1016.5 - 0.0 - - - - - - -
24/01:00pm 16.9 CALM 0 0 1016.8 - 0.0 - - - - - - -
24/12:30pm 17.4 ENE 2 4 1017.2 - 0.0 - - - - - - -
24/12:00pm 17.5 ENE 2 4 1017.5 - 0.0 - - - - - - -
24/11:30am 17.7 ENE 2 5 1018.0 - 0.0 - - - - - - -
24/11:00am 17.4 NE 2 3 1018.4 - 0.0 - - - - - - -
24/10:30am 16.9 ENE 1 3 1018.9 - 0.0 - - - - - - -
24/10:00am 16.8 ENE 3 5 1019.2 - 0.0 - - - - - - -
24/09:30am 16.4 NE 1 3 1019.4 - 0.0 - - - - - - -
24/09:00am 16.3 NE 2 4 1019.8 - 0.0 - - - - - - -
24/08:30am 15.7 NNE 2 4 1020.0 - 0.0 - - - - - - -
24/08:00am 14.6 NNE 1 2 1020.1 - 0.0 - - - - - - -

Other Formats:

Comma delimited format used in spreadsheet applications
http://www.bom.gov.au/fwo/IDV60701/IDV60701.94830.axf

JavaScript Object Notation format (JSON) in row-major order
http://www.bom.gov.au/fwo/IDV60701/IDV60701.94830.json